createdAt,value
2019-03-25T00:00:55.107Z,126.75
2019-03-25T00:03:25.481Z,116.33
2019-03-25T00:05:55.407Z,119.80
2019-03-25T00:08:25.175Z,120.60
2019-03-25T00:10:54.845Z,118.23
2019-03-25T00:13:24.547Z,119.37
2019-03-25T00:15:56.410Z,114.90
2019-03-25T00:18:25.549Z,117.93
2019-03-25T00:20:55.213Z,124.50
2019-03-25T00:23:26.123Z,113.33
2019-03-25T00:25:55.834Z,119.10
2019-03-25T00:28:25.662Z,121.57
2019-03-25T00:30:55.276Z,113.40
2019-03-25T00:33:25.024Z,123.70
2019-03-25T00:35:54.652Z,119.23
2019-03-25T00:38:24.521Z,134.67
2019-03-25T00:40:54.229Z,127.80
2019-03-25T00:43:23.830Z,119.47
2019-03-25T00:45:53.483Z,118.30
2019-03-25T00:48:23.182Z,125.80
2019-03-25T00:50:53.110Z,117.73
2019-03-25T00:53:22.836Z,121.27
2019-03-25T00:55:52.585Z,115.87
2019-03-25T00:58:22.354Z,114.23
2019-03-25T01:00:52.060Z,136.10
2019-03-25T01:03:21.848Z,124.67
2019-03-25T01:05:51.630Z,128.83
2019-03-25T01:08:21.370Z,124.93
2019-03-25T01:10:50.970Z,114.70
2019-03-25T01:13:20.634Z,119.75
2019-03-25T01:15:50.494Z,109.60
2019-03-25T01:18:20.078Z,121.60
2019-03-25T01:20:49.750Z,118.27
2019-03-25T01:23:19.362Z,125.50
2019-03-25T01:25:48.971Z,129.00
2019-03-25T01:28:18.718Z,134.60
2019-03-25T01:30:48.419Z,119.63
2019-03-25T01:33:19.110Z,116.40
2019-03-25T01:35:48.790Z,130.67
2019-03-25T01:38:18.460Z,115.97
2019-03-25T01:40:48.339Z,125.55
2019-03-25T01:43:18.061Z,109.90
2019-03-25T01:45:47.702Z,120.30
2019-03-25T01:48:17.563Z,113.97
2019-03-25T01:50:47.295Z,127.17
2019-03-25T01:53:17.259Z,110.33
2019-03-25T01:55:46.924Z,120.77
2019-03-25T01:58:16.607Z,120.50
2019-03-25T02:00:46.335Z,109.97
2019-03-25T02:03:15.954Z,111.57
2019-03-25T02:05:46.615Z,117.60
2019-03-25T02:08:16.207Z,123.03
2019-03-25T02:10:45.851Z,125.63
2019-03-25T02:13:15.621Z,119.27
2019-03-25T02:15:45.568Z,130.33
2019-03-25T02:18:15.229Z,122.97
2019-03-25T02:20:45.989Z,121.90
2019-03-25T02:23:15.676Z,121.37
2019-03-25T02:25:45.379Z,135.77
2019-03-25T02:28:15.143Z,131.13
2019-03-25T02:30:45.914Z,133.00
2019-03-25T02:33:15.738Z,126.20
2019-03-25T02:35:45.531Z,135.50
2019-03-25T02:38:15.136Z,141.47
2019-03-25T02:40:46.334Z,126.30
2019-03-25T02:43:16.044Z,127.60
2019-03-25T02:45:45.855Z,130.80
2019-03-25T02:48:15.561Z,132.20
2019-03-25T02:50:45.236Z,139.10
2019-03-25T02:53:14.988Z,128.47
2019-03-25T02:55:44.646Z,119.90
2019-03-25T02:58:14.293Z,129.53
2019-03-25T03:00:44.411Z,127.40
2019-03-25T03:03:14.188Z,131.90
2019-03-25T03:05:43.894Z,132.27
2019-03-25T03:08:13.625Z,134.93
2019-03-25T03:10:43.354Z,141.93
2019-03-25T03:13:13.097Z,130.87
2019-03-25T03:15:42.853Z,148.47
2019-03-25T03:18:12.574Z,141.67
2019-03-25T03:20:43.620Z,139.33
2019-03-25T03:23:13.316Z,137.00
2019-03-25T03:25:56.473Z,134.60
2019-03-25T03:28:14.247Z,144.83
2019-03-25T03:30:43.978Z,141.47
2019-03-25T03:33:13.721Z,151.63
2019-03-25T03:35:46.346Z,141.30
2019-03-25T03:38:14.730Z,147.07
2019-03-25T03:40:44.442Z,131.17
2019-03-25T03:43:14.161Z,138.30
2019-03-25T03:45:44.004Z,141.80
2019-03-25T03:48:13.975Z,134.47
2019-03-25T03:50:44.758Z,139.90
2019-03-25T03:53:14.502Z,133.00
2019-03-25T03:55:44.388Z,131.70
2019-03-25T03:58:14.365Z,145.47
2019-03-25T04:00:44.039Z,123.73
2019-03-25T04:03:13.679Z,143.15
2019-03-25T04:05:43.459Z,134.10
2019-03-25T04:08:13.124Z,128.23
2019-03-25T04:10:42.860Z,141.97
2019-03-25T04:13:12.891Z,143.85
2019-03-25T04:15:42.742Z,136.57
2019-03-25T04:18:12.334Z,129.93
2019-03-25T04:20:42.116Z,132.00
2019-03-25T04:23:11.807Z,135.70
2019-03-25T04:25:41.623Z,130.00
2019-03-25T04:28:11.279Z,135.80
2019-03-25T04:30:41.012Z,138.57
2019-03-25T04:33:10.740Z,140.52
2019-03-25T04:35:40.491Z,137.57
2019-03-25T04:38:10.227Z,146.23
2019-03-25T04:40:39.892Z,134.97
2019-03-25T04:43:09.493Z,134.27
2019-03-25T04:45:39.283Z,125.73
2019-03-25T04:48:08.885Z,130.83
2019-03-25T04:50:39.617Z,139.70
2019-03-25T04:53:10.457Z,128.33
2019-03-25T04:55:40.136Z,132.60
2019-03-25T04:58:09.803Z,138.07
2019-03-25T05:00:39.587Z,135.03
2019-03-25T05:03:09.385Z,128.30
2019-03-25T05:05:39.297Z,137.60
2019-03-25T05:08:09.148Z,141.43
2019-03-25T05:10:39.803Z,116.60
2019-03-25T05:13:09.477Z,140.93
2019-03-25T05:15:39.966Z,130.10
2019-03-25T05:18:09.577Z,142.80
2019-03-25T05:20:39.250Z,127.57
2019-03-25T05:23:08.941Z,133.37
2019-03-25T05:25:38.701Z,139.53
2019-03-25T05:28:08.526Z,119.50
2019-03-25T05:30:38.194Z,139.30
2019-03-25T05:33:07.878Z,144.77
2019-03-25T05:35:37.510Z,138.13
2019-03-25T05:38:07.266Z,128.80
2019-03-25T05:40:37.006Z,138.43
2019-03-25T05:43:06.820Z,138.03
2019-03-25T05:45:36.629Z,141.20
2019-03-25T05:48:06.441Z,119.83
2019-03-25T05:50:36.113Z,136.30
2019-03-25T05:53:05.831Z,143.60
2019-03-25T05:55:35.427Z,129.83
2019-03-25T05:58:05.292Z,120.03
2019-03-25T06:00:36.640Z,114.43
2019-03-25T06:03:06.274Z,116.27
2019-03-25T06:05:35.945Z,105.20
2019-03-25T06:08:05.651Z,102.67
2019-03-25T06:10:35.610Z,92.50
2019-03-25T06:13:05.283Z,91.63
2019-03-25T06:15:34.868Z,92.95
2019-03-25T06:18:04.887Z,85.97
2019-03-25T06:20:34.662Z,83.87
2019-03-25T06:23:04.423Z,83.17
2019-03-25T06:25:34.107Z,88.73
2019-03-25T06:28:03.856Z,82.53
2019-03-25T06:30:33.627Z,72.92
2019-03-25T06:33:12.009Z,66.27
2019-03-25T06:35:35.349Z,62.50
2019-03-25T06:38:05.019Z,65.70
2019-03-25T06:40:35.368Z,64.83
2019-03-25T06:43:05.017Z,59.67
2019-03-25T06:45:34.789Z,60.87
2019-03-25T06:48:04.600Z,54.07
2019-03-25T06:50:34.306Z,56.73
2019-03-25T06:53:03.987Z,58.10
2019-03-25T06:55:33.670Z,60.83
2019-03-25T06:58:03.374Z,51.57
2019-03-25T07:00:33.129Z,50.30
2019-03-25T07:03:02.790Z,60.47
2019-03-25T07:05:32.535Z,59.57
2019-03-25T07:08:02.482Z,52.67
2019-03-25T07:10:33.310Z,57.73
2019-03-25T07:13:04.190Z,49.90
2019-03-25T07:15:33.878Z,42.77
2019-03-25T07:18:05.034Z,43.63
2019-03-25T07:20:34.950Z,37.03
2019-03-25T07:23:04.710Z,44.23
2019-03-25T07:25:35.623Z,39.57
2019-03-25T07:28:05.340Z,44.47
2019-03-25T07:30:35.058Z,41.65
2019-03-25T07:33:04.735Z,36.97
2019-03-25T07:35:34.570Z,36.57
2019-03-25T07:38:04.332Z,32.90
2019-03-25T07:40:34.188Z,40.97
2019-03-25T07:43:03.983Z,37.43
2019-03-25T07:45:33.709Z,38.00
2019-03-25T07:48:04.234Z,35.20
2019-03-25T07:50:34.163Z,38.57
2019-03-25T07:53:05.111Z,39.07
2019-03-25T07:55:34.736Z,32.90
2019-03-25T07:58:04.453Z,34.00
2019-03-25T08:00:34.139Z,36.13
2019-03-25T08:03:05.012Z,40.63
2019-03-25T08:05:34.822Z,36.27
2019-03-25T08:08:07.168Z,37.93
2019-03-25T08:10:36.651Z,35.37
2019-03-25T08:13:06.512Z,34.73
2019-03-25T08:15:36.219Z,40.37
2019-03-25T08:18:06.182Z,33.25
2019-03-25T08:20:35.951Z,33.47
2019-03-25T08:23:09.292Z,43.13
2019-03-25T08:25:39.342Z,44.33
2019-03-25T08:28:09.015Z,33.50
2019-03-25T08:30:38.755Z,32.43
2019-03-25T08:33:08.487Z,24.37
2019-03-25T08:35:38.287Z,28.13
2019-03-25T08:38:07.943Z,30.43
2019-03-25T08:40:38.730Z,27.53
2019-03-25T08:43:08.396Z,31.10
2019-03-25T08:45:38.247Z,28.20
2019-03-25T08:48:08.996Z,19.93
2019-03-25T08:50:38.814Z,20.83
2019-03-25T08:53:08.484Z,21.00
2019-03-25T08:55:38.520Z,24.63
2019-03-25T08:58:12.283Z,30.87
2019-03-25T09:00:40.876Z,19.73
2019-03-25T09:03:10.708Z,27.33
2019-03-25T09:05:40.578Z,24.43
2019-03-25T09:08:10.270Z,21.90
2019-03-25T09:10:39.981Z,23.20
2019-03-25T09:13:09.588Z,24.90
2019-03-25T09:15:39.352Z,23.67
2019-03-25T09:18:09.043Z,28.57
2019-03-25T09:20:38.772Z,28.07
2019-03-25T09:23:08.424Z,24.57
2019-03-25T09:25:38.291Z,26.63
2019-03-25T09:28:09.208Z,21.23
2019-03-25T09:31:16.002Z,23.40
2019-03-25T09:33:46.282Z,18.90
2019-03-25T09:36:16.895Z,24.80
2019-03-25T09:38:46.551Z,20.43
2019-03-25T09:41:16.350Z,19.07
2019-03-25T09:43:46.266Z,17.45
2019-03-25T09:46:15.977Z,18.37
2019-03-25T09:48:45.645Z,19.40
2019-03-25T09:51:15.327Z,28.73
2019-03-25T09:53:44.989Z,16.43
2019-03-25T09:56:14.663Z,25.50
2019-03-25T09:58:44.258Z,15.83
2019-03-25T10:01:13.969Z,17.93
2019-03-25T10:03:43.548Z,17.70
2019-03-25T10:06:13.256Z,17.93
2019-03-25T10:08:43.005Z,9.97
2019-03-25T10:11:13.308Z,21.33
2019-03-25T10:13:42.939Z,12.70
2019-03-25T10:16:12.519Z,10.37
2019-03-25T10:18:42.265Z,10.97
2019-03-25T10:21:12.343Z,10.43
2019-03-25T10:23:42.123Z,18.63
2019-03-25T10:26:11.851Z,15.53
2019-03-25T10:28:48.538Z,12.03
2019-03-25T10:31:13.864Z,12.10
2019-03-25T10:33:43.537Z,15.20
2019-03-25T10:36:13.247Z,13.47
2019-03-25T10:38:42.919Z,8.40
2019-03-25T10:41:12.867Z,10.00
2019-03-25T10:43:42.543Z,10.73
2019-03-25T10:46:12.199Z,11.67
2019-03-25T10:48:41.871Z,9.70
2019-03-25T10:51:11.756Z,7.97
2019-03-25T10:53:41.424Z,6.73
2019-03-25T10:56:11.104Z,14.23
2019-03-25T10:58:40.791Z,11.43
2019-03-25T11:01:10.439Z,10.60
2019-03-25T11:03:40.189Z,13.57
2019-03-25T11:06:09.853Z,8.50
2019-03-25T11:08:39.459Z,11.13
2019-03-25T11:11:09.208Z,8.43
2019-03-25T11:13:38.883Z,7.40
2019-03-25T11:16:10.334Z,6.35
2019-03-25T11:18:39.898Z,5.60
2019-03-25T11:21:09.570Z,13.00
2019-03-25T11:23:39.202Z,9.43
2019-03-25T11:26:08.865Z,8.13
2019-03-25T11:28:38.533Z,8.80
2019-03-25T11:31:08.204Z,11.33
2019-03-25T11:33:37.852Z,8.40
2019-03-25T11:36:07.490Z,2.85
2019-03-25T11:38:37.205Z,10.13
2019-03-25T11:41:06.930Z,8.27
2019-03-25T11:43:36.613Z,6.07
2019-03-25T11:46:06.290Z,3.17
2019-03-25T11:48:35.972Z,5.97
2019-03-25T11:51:05.769Z,6.03
2019-03-25T11:53:35.378Z,6.17
2019-03-25T11:56:05.343Z,6.80
2019-03-25T11:58:35.007Z,4.47
2019-03-25T12:01:04.766Z,4.27
2019-03-25T12:03:34.459Z,12.63
2019-03-25T12:06:04.291Z,3.87
2019-03-25T12:08:33.922Z,4.57
2019-03-25T12:11:03.665Z,12.00
2019-03-25T12:13:33.381Z,8.23
2019-03-25T12:16:03.221Z,5.23
2019-03-25T12:18:32.954Z,6.70
2019-03-25T12:21:02.650Z,3.93
2019-03-25T12:23:32.294Z,6.50
2019-03-25T12:26:01.888Z,8.27
2019-03-25T12:28:31.552Z,3.53
2019-03-25T12:31:01.244Z,3.20
2019-03-25T12:33:30.834Z,3.07
2019-03-25T12:36:00.523Z,5.80
2019-03-25T12:38:30.163Z,8.43
2019-03-25T12:40:59.875Z,5.12
2019-03-25T12:43:29.576Z,7.87
2019-03-25T12:45:59.241Z,4.20
2019-03-25T12:48:28.858Z,4.90
2019-03-25T12:50:58.463Z,8.50
2019-03-25T12:53:29.160Z,5.20
2019-03-25T12:55:58.891Z,3.30
2019-03-25T12:58:28.475Z,6.90
2019-03-25T13:00:58.170Z,10.33
2019-03-25T13:03:27.818Z,12.00
2019-03-25T13:05:57.401Z,7.90
2019-03-25T13:08:32.970Z,5.70
2019-03-25T13:10:58.347Z,11.53
2019-03-25T13:13:27.919Z,25.57
2019-03-25T13:15:57.517Z,12.10
2019-03-25T13:18:27.176Z,7.27
2019-03-25T13:20:56.882Z,9.47
2019-03-25T13:23:26.643Z,8.30
2019-03-25T13:25:56.266Z,10.20
2019-03-25T13:28:26.050Z,4.00
2019-03-25T13:30:56.601Z,10.60
2019-03-25T13:33:26.334Z,6.50
2019-03-25T13:35:56.096Z,7.10
2019-03-25T13:38:25.737Z,3.80
2019-03-25T13:40:55.331Z,8.43
2019-03-25T13:43:25.271Z,10.37
2019-03-25T13:46:05.062Z,11.33
2019-03-25T13:48:27.427Z,8.23
2019-03-25T13:50:57.098Z,6.75
2019-03-25T13:53:26.758Z,8.00
2019-03-25T13:55:56.423Z,4.77
2019-03-25T13:58:26.009Z,3.73
2019-03-25T14:00:55.685Z,5.23
2019-03-25T14:03:25.387Z,2.73
2019-03-25T14:05:55.010Z,2.30
2019-03-25T14:08:24.713Z,2.27
2019-03-25T14:10:54.339Z,4.90
2019-03-25T14:13:23.971Z,8.73
2019-03-25T14:15:53.559Z,8.70
2019-03-25T14:18:23.125Z,3.33
2019-03-25T14:20:52.789Z,4.87
2019-03-25T14:23:22.445Z,10.28
2019-03-25T14:25:52.043Z,11.08
2019-03-25T14:28:21.703Z,21.63
2019-03-25T14:30:51.418Z,4.50
2019-03-25T14:33:20.990Z,6.90
2019-03-25T14:35:51.705Z,5.17
2019-03-25T14:38:21.507Z,4.70
2019-03-25T14:40:51.351Z,5.90
2019-03-25T14:43:21.119Z,4.73
2019-03-25T14:45:50.837Z,8.10
2019-03-25T14:48:20.487Z,4.97
2019-03-25T14:50:50.073Z,7.53
2019-03-25T14:53:19.727Z,5.63
2019-03-25T14:55:49.329Z,9.60
2019-03-25T14:58:19.001Z,5.73
2019-03-25T15:00:48.571Z,5.03
2019-03-25T15:03:18.236Z,5.87
2019-03-25T15:05:47.913Z,10.67
2019-03-25T15:08:17.691Z,5.87
2019-03-25T15:10:53.455Z,6.83
2019-03-25T15:13:18.645Z,6.60
2019-03-25T15:15:48.315Z,6.17
2019-03-25T15:18:17.973Z,4.20
2019-03-25T15:20:47.625Z,5.27
2019-03-25T15:23:17.308Z,2.90
2019-03-25T15:25:46.975Z,5.33
2019-03-25T15:28:16.919Z,5.73
2019-03-25T15:30:46.506Z,1.90
2019-03-25T15:33:16.094Z,2.10
2019-03-25T15:35:45.672Z,2.07
2019-03-25T15:38:16.334Z,2.50
2019-03-25T15:40:45.914Z,3.07
2019-03-25T15:43:15.614Z,2.57
2019-03-25T15:45:45.337Z,3.70
2019-03-25T15:48:15.058Z,1.90
2019-03-25T15:50:44.723Z,2.00
2019-03-25T15:53:14.310Z,6.07
2019-03-25T15:55:43.972Z,2.50
2019-03-25T15:58:13.638Z,3.93
2019-03-25T16:00:47.927Z,2.30
2019-03-25T16:03:14.856Z,2.20
2019-03-25T16:05:44.591Z,3.10
2019-03-25T16:08:15.163Z,2.90
2019-03-25T16:10:44.790Z,4.07
2019-03-25T16:13:14.585Z,5.60
2019-03-25T16:15:44.342Z,3.37
2019-03-25T16:18:33.696Z,6.43
2019-03-25T16:21:03.469Z,6.40
2019-03-25T16:23:33.131Z,5.30
2019-03-25T16:26:02.830Z,8.57
2019-03-25T16:28:32.502Z,7.17
2019-03-25T16:31:02.192Z,7.40
2019-03-25T16:33:31.878Z,7.97
2019-03-25T16:36:01.531Z,4.37
2019-03-25T16:38:32.382Z,9.90
2019-03-25T16:41:02.034Z,6.53
2019-03-25T16:43:31.658Z,3.93
2019-03-25T16:46:01.289Z,3.10
2019-03-25T16:48:31.054Z,7.30
2019-03-25T16:51:00.718Z,2.50
2019-03-25T16:53:32.352Z,3.70
2019-03-25T16:56:01.730Z,4.80
2019-03-25T16:58:31.432Z,6.63
2019-03-25T17:01:09.543Z,4.87
2019-03-25T17:03:32.527Z,2.40
2019-03-25T17:06:02.255Z,2.80
2019-03-25T17:08:31.915Z,2.73
2019-03-25T17:11:01.590Z,5.67
2019-03-25T17:13:31.334Z,3.83
2019-03-25T17:16:00.902Z,3.10
2019-03-25T17:18:30.559Z,7.97
2019-03-25T17:21:00.178Z,2.57
2019-03-25T17:23:29.771Z,2.80
2019-03-25T17:25:59.459Z,7.93
2019-03-25T17:28:29.080Z,10.87
2019-03-25T17:30:58.727Z,3.60
2019-03-25T17:33:28.398Z,6.30
2019-03-25T17:35:58.243Z,7.97
2019-03-25T17:38:27.827Z,5.90
2019-03-25T17:40:57.481Z,5.10
2019-03-25T17:43:27.161Z,4.00
2019-03-25T17:45:56.826Z,2.40
2019-03-25T17:48:26.494Z,2.73
2019-03-25T17:50:57.279Z,4.13
2019-03-25T17:53:28.035Z,3.27
2019-03-25T17:55:57.679Z,3.67
2019-03-25T17:58:27.370Z,3.53
2019-03-25T18:01:01.586Z,3.73
2019-03-25T18:03:31.426Z,3.00
2019-03-25T18:06:01.108Z,2.97
2019-03-25T18:08:30.790Z,6.23
2019-03-25T18:11:00.363Z,2.80
2019-03-25T18:13:31.164Z,3.30
2019-03-25T18:16:00.833Z,2.80
2019-03-25T18:18:30.472Z,2.97
2019-03-25T18:21:00.210Z,6.70
2019-03-25T18:23:29.813Z,4.70
2019-03-25T18:25:59.686Z,8.23
2019-03-25T18:28:29.352Z,3.33
2019-03-25T18:30:58.932Z,4.37
2019-03-25T18:33:28.586Z,6.47
2019-03-25T18:35:58.147Z,4.10
2019-03-25T18:38:27.743Z,3.57
2019-03-25T18:40:57.318Z,6.50
2019-03-25T18:43:27.086Z,4.20
2019-03-25T18:45:56.819Z,5.37
2019-03-25T18:48:26.486Z,3.03
2019-03-25T18:50:57.158Z,7.25
2019-03-25T18:53:26.874Z,7.60
2019-03-25T18:55:56.570Z,4.92
2019-03-25T18:58:26.244Z,3.77
2019-03-25T19:00:55.969Z,4.00
2019-03-25T19:03:25.607Z,4.70
2019-03-25T19:05:55.340Z,5.70
2019-03-25T19:08:26.294Z,3.43
2019-03-25T19:10:56.109Z,4.10
2019-03-25T19:13:26.792Z,3.40
2019-03-25T19:15:56.599Z,7.23
2019-03-25T19:18:26.231Z,4.73
2019-03-25T19:20:55.989Z,4.63
2019-03-25T19:23:25.725Z,4.20
2019-03-25T19:25:55.395Z,5.57
2019-03-25T19:28:24.982Z,3.90
2019-03-25T19:30:54.625Z,7.30
2019-03-25T19:33:24.473Z,3.60
2019-03-25T19:35:54.127Z,4.00
2019-03-25T19:38:24.233Z,4.80
2019-03-25T19:40:53.977Z,3.30
2019-03-25T19:43:23.584Z,4.77
2019-03-25T19:45:54.305Z,3.53
2019-03-25T19:48:24.212Z,7.07
2019-03-25T19:50:54.050Z,4.47
2019-03-25T19:53:23.687Z,4.13
2019-03-25T19:55:53.339Z,3.90
2019-03-25T19:58:22.984Z,4.20
2019-03-25T20:00:52.657Z,3.50
2019-03-25T20:03:22.380Z,5.90
2019-03-25T20:05:52.120Z,4.17
2019-03-25T20:08:21.806Z,8.50
2019-03-25T20:10:51.370Z,2.67
2019-03-25T20:13:20.982Z,3.13
2019-03-25T20:15:50.608Z,2.57
2019-03-25T20:18:20.236Z,3.57
2019-03-25T20:20:49.828Z,1.90
2019-03-25T20:23:19.677Z,1.57
2019-03-25T20:25:49.370Z,3.52
2019-03-25T20:28:19.186Z,9.20
2019-03-25T20:30:48.810Z,3.73
2019-03-25T20:33:18.597Z,2.57
2019-03-25T20:35:48.271Z,2.13
2019-03-25T20:38:17.878Z,152.53
2019-03-25T20:40:47.828Z,4.73
2019-03-25T20:43:17.474Z,3.50
2019-03-25T20:45:47.231Z,3.37
2019-03-25T20:48:16.794Z,3.50
2019-03-25T20:50:46.471Z,3.83
2019-03-25T20:53:16.118Z,5.27
2019-03-25T20:55:45.782Z,3.90
2019-03-25T20:58:15.521Z,3.40
2019-03-25T21:00:46.113Z,4.10
2019-03-25T21:03:16.370Z,4.93
2019-03-25T21:05:45.960Z,5.57
2019-03-25T21:08:15.676Z,6.40
2019-03-25T21:10:45.375Z,4.87
2019-03-25T21:13:15.022Z,4.70
2019-03-25T21:15:46.249Z,9.40
2019-03-25T21:18:16.130Z,7.20
2019-03-25T21:20:45.841Z,6.30
2019-03-25T21:23:15.589Z,6.37
2019-03-25T21:25:45.336Z,6.03
2019-03-25T21:28:15.059Z,9.83
2019-03-25T21:30:48.283Z,10.93
2019-03-25T21:33:16.320Z,6.17
2019-03-25T21:35:46.570Z,11.13
2019-03-25T21:38:16.435Z,7.87
2019-03-25T21:40:46.206Z,6.70
2019-03-25T21:43:16.037Z,7.03
2019-03-25T21:45:45.869Z,7.10
2019-03-25T21:48:15.523Z,9.20
2019-03-25T21:50:45.262Z,7.47
2019-03-25T21:53:15.685Z,5.57
2019-03-25T21:55:47.130Z,6.80
2019-03-25T21:58:16.925Z,7.07
2019-03-25T22:00:46.838Z,12.07
2019-03-25T22:03:17.027Z,154.53
2019-03-25T22:05:46.810Z,8.23
2019-03-25T22:08:16.450Z,6.20
2019-03-25T22:10:46.155Z,8.53
2019-03-25T22:13:15.785Z,6.87
2019-03-25T22:15:45.359Z,9.43
2019-03-25T22:18:14.906Z,7.10
2019-03-25T22:20:44.656Z,6.73
2019-03-25T22:23:14.228Z,6.30
2019-03-25T22:25:43.836Z,6.43
2019-03-25T22:28:13.462Z,5.70
2019-03-25T22:30:43.161Z,8.17
2019-03-25T22:33:25.155Z,8.00
2019-03-25T22:35:44.115Z,7.43
2019-03-25T22:38:13.667Z,7.78
2019-03-25T22:40:43.366Z,6.97
2019-03-25T22:43:13.007Z,6.30
2019-03-25T22:45:42.699Z,6.53
2019-03-25T22:48:12.335Z,8.40
2019-03-25T22:50:42.115Z,10.53
2019-03-25T22:53:11.767Z,76.60
2019-03-25T22:55:42.781Z,6.27
2019-03-25T22:58:15.241Z,6.97
2019-03-25T23:00:45.234Z,6.23
2019-03-25T23:03:15.325Z,6.70
2019-03-25T23:05:45.134Z,8.10
2019-03-25T23:08:14.793Z,8.33
2019-03-25T23:10:44.443Z,10.03
2019-03-25T23:13:14.037Z,5.20
2019-03-25T23:15:44.737Z,5.30
2019-03-25T23:18:14.378Z,9.90
2019-03-25T23:20:44.054Z,7.97
2019-03-25T23:23:13.731Z,8.07
2019-03-25T23:25:43.375Z,5.03
2019-03-25T23:28:13.008Z,8.40
2019-03-25T23:30:42.938Z,4.97
2019-03-25T23:33:12.742Z,8.30
2019-03-25T23:35:42.408Z,7.37
2019-03-25T23:38:12.566Z,10.80
2019-03-25T23:40:42.167Z,10.03
2019-03-25T23:43:11.809Z,7.10
2019-03-25T23:45:42.292Z,6.13
2019-03-25T23:48:11.870Z,12.80
2019-03-25T23:50:41.494Z,6.43
2019-03-25T23:53:11.084Z,6.43
2019-03-25T23:55:40.819Z,6.30
2019-03-25T23:58:10.561Z,13.13
